Time;durP1;ratioP1;P1;durP2;ratioP2;P2;SDS_P1;SDS_P2;PMS_P1;PMS_P2;Temp;Humidity;BMP_temperature;BMP_pressure;BME280_temperature;BME280_humidity;BME280_pressure;Samples;Min_cycle;Max_cycle;Signal;HPM_P1;HPM_P2
2023/05/26 00:00:15;;;;;;;2.80;2.55;;;;;;;17.17;88.08;98112.47;5055075;28;20192;-61
2023/05/26 00:02:42;;;;;;;5.07;2.78;;;;;;;17.37;86.58;98140.06;5054309;28;20204;-61
2023/05/26 00:05:08;;;;;;;3.22;2.42;;;;;;;17.23;86.15;98128.38;5054869;28;20200;-61
2023/05/26 00:07:40;;;;;;;3.22;2.67;;;;;;;16.82;86.35;98071.53;5054881;28;20633;-61
2023/05/26 00:10:10;;;;;;;2.65;2.42;;;;;;;17.28;86.98;98160.13;5054851;28;20180;-61
2023/05/26 00:12:37;;;;;;;2.95;2.47;;;;;;;16.69;87.74;98059.84;5054815;28;20179;-61
2023/05/26 00:15:03;;;;;;;4.90;2.90;;;;;;;17.06;89.73;98138.84;5054773;28;20173;-61
2023/05/26 00:17:29;;;;;;;4.50;2.78;;;;;;;16.68;88.92;98071.25;5054707;28;20177;-61
2023/05/26 00:19:54;;;;;;;3.75;2.80;;;;;;;17.03;87.71;98118.25;5054665;28;20183;-61
2023/05/26 00:22:20;;;;;;;6.22;2.38;;;;;;;16.97;88.15;98109.22;5054850;28;20616;-61
2023/05/26 00:24:46;;;;;;;3.35;2.85;;;;;;;16.91;88.11;98122.88;5054470;28;20217;-61
2023/05/26 00:27:12;;;;;;;2.90;2.40;;;;;;;16.93;89.78;98131.41;5054549;28;20185;-61
2023/05/26 00:29:38;;;;;;;3.88;2.65;;;;;;;16.55;91.21;98104.78;5054493;28;20197;-61
2023/05/26 00:32:04;;;;;;;2.70;2.50;;;;;;;16.42;90.22;98071.19;5054378;28;20268;-61
2023/05/26 00:34:30;;;;;;;2.42;2.28;;;;;;;16.88;88.95;98125.81;5054393;28;20177;-61
2023/05/26 00:36:55;;;;;;;2.65;2.45;;;;;;;16.77;88.57;98110.38;5054386;28;20235;-61
2023/05/26 00:39:20;;;;;;;2.55;2.35;;;;;;;16.85;87.10;98128.72;5054369;28;20227;-61
2023/05/26 00:41:46;;;;;;;3.03;2.13;;;;;;;16.72;87.86;98103.94;5054003;28;20182;-61
2023/05/26 00:44:12;;;;;;;2.95;2.50;;;;;;;16.88;89.54;98145.88;5054350;28;20193;-61
2023/05/26 00:46:37;;;;;;;2.80;2.58;;;;;;;16.76;90.26;98144.47;5054238;28;20256;-61
2023/05/26 00:49:03;;;;;;;2.72;2.53;;;;;;;16.60;90.84;98137.31;5054144;28;20702;-61
2023/05/26 00:51:28;;;;;;;2.33;2.22;;;;;;;16.31;91.10;98091.44;5054106;28;20628;-61
2023/05/26 00:53:55;;;;;;;2.40;2.30;;;;;;;16.57;90.05;98149.84;5054322;28;20178;-61
2023/05/26 00:56:22;;;;;;;2.72;2.53;;;;;;;16.18;90.78;98106.66;5054292;28;20200;-61
2023/05/26 00:58:47;;;;;;;2.53;2.33;;;;;;;15.93;90.89;98086.47;5053966;28;20208;-61
2023/05/26 01:01:13;;;;;;;2.92;2.42;;;;;;;16.44;91.97;98158.03;5053368;28;20228;-61
2023/05/26 01:03:39;;;;;;;3.03;2.70;;;;;;;16.44;91.03;98144.97;5053450;28;20181;-61
2023/05/26 01:06:05;;;;;;;2.67;2.42;;;;;;;16.25;91.86;98111.13;5053863;28;20173;-61
2023/05/26 01:08:32;;;;;;;5.13;2.85;;;;;;;16.48;93.29;98161.19;5053761;28;20170;-61
2023/05/26 01:11:06;;;;;;;3.08;2.65;;;;;;;16.48;92.67;98151.56;5053718;28;20177;-61
2023/05/26 01:13:41;;;;;;;2.72;2.58;;;;;;;16.26;93.03;98109.38;5053775;28;20157;-61
2023/05/26 01:16:09;;;;;;;2.83;2.55;;;;;;;16.23;91.83;98107.88;5053362;28;20651;-61
2023/05/26 01:18:42;;;;;;;4.07;2.60;;;;;;;16.41;91.61;98144.47;5053579;28;20588;-61
2023/05/26 01:21:12;;;;;;;3.30;2.70;;;;;;;16.04;92.26;98100.13;5053604;28;20170;-61
2023/05/26 01:24:18;;;;;;;2.40;2.20;;;;;;;16.49;90.24;98152.41;5053415;28;20170;-61
2023/05/26 01:27:11;;;;;;;4.95;2.70;;;;;;;16.56;90.43;98158.66;5053519;28;20201;-61
2023/05/26 01:29:37;;;;;;;2.83;2.60;;;;;;;16.11;90.35;98095.16;5053725;28;20219;-61
2023/05/26 01:32:12;;;;;;;2.33;2.20;;;;;;;16.53;90.46;98156.34;5052983;28;20177;-61
2023/05/26 01:34:37;;;;;;;2.50;2.30;;;;;;;16.46;91.15;98152.69;5053020;28;20627;-61
2023/05/26 01:37:03;;;;;;;2.47;2.35;;;;;;;15.90;89.81;98063.28;5053229;28;20188;-61
2023/05/26 01:39:28;;;;;;;2.85;2.50;;;;;;;16.20;89.29;98115.19;5053155;28;20598;-61
2023/05/26 01:42:04;;;;;;;2.85;2.40;;;;;;;16.47;89.72;98149.09;5053133;28;20702;-61
2023/05/26 01:44:35;;;;;;;2.60;2.40;;;;;;;16.28;88.95;98116.06;5053028;28;20228;-61
2023/05/26 01:47:03;;;;;;;2.25;2.05;;;;;;;16.00;88.59;98057.06;5053097;28;20225;-61
2023/05/26 01:49:29;;;;;;;4.55;2.55;;;;;;;16.23;90.19;98130.53;5052948;28;20178;-61
2023/05/26 01:51:57;;;;;;;3.95;2.67;;;;;;;16.10;90.35;98115.22;5052958;28;20177;-61
2023/05/26 01:54:25;;;;;;;4.25;2.40;;;;;;;16.16;91.20;98142.53;5052598;28;20209;-61
2023/05/26 01:56:52;;;;;;;6.03;2.45;;;;;;;15.61;91.19;98068.66;5052876;28;20184;-61
2023/05/26 01:59:20;;;;;;;3.35;2.40;;;;;;;15.67;90.02;98072.44;5052710;28;20186;-61
2023/05/26 02:01:46;;;;;;;2.47;2.38;;;;;;;15.99;90.60;98114.59;5052770;28;20617;-61
2023/05/26 02:04:12;;;;;;;2.95;2.40;;;;;;;15.71;91.12;98086.88;5052594;28;20195;-61
2023/05/26 02:06:38;;;;;;;3.28;2.80;;;;;;;15.71;92.46;98103.34;5052720;28;20239;-62
2023/05/26 02:09:05;;;;;;;4.43;2.58;;;;;;;15.82;93.81;98137.06;5050144;28;20185;-61
2023/05/26 02:11:31;;;;;;;2.65;2.45;;;;;;;16.01;93.94;98160.47;5050176;28;20186;-62
2023/05/26 02:13:56;;;;;;;3.95;2.67;;;;;;;15.47;92.73;98084.78;5049854;28;20310;-61
2023/05/26 02:16:22;;;;;;;3.40;2.42;;;;;;;15.79;90.10;98115.66;5050144;28;20237;-62
2023/05/26 02:18:48;;;;;;;2.30;2.10;;;;;;;15.95;90.42;98147.16;5050065;28;20198;-61
2023/05/26 02:21:14;;;;;;;2.95;2.28;;;;;;;15.95;90.46;98137.56;5050052;28;20338;-61
2023/05/26 02:23:39;;;;;;;2.10;2.00;;;;;;;15.65;90.69;98105.69;5049895;28;20189;-61
2023/05/26 02:26:05;;;;;;;3.38;2.08;;;;;;;15.68;90.79;98101.00;5050047;28;20224;-61
2023/05/26 02:28:30;;;;;;;2.50;2.30;;;;;;;15.89;92.17;98152.97;5049975;28;20273;-61
2023/05/26 02:30:55;;;;;;;3.88;2.42;;;;;;;15.74;91.81;98129.13;5050262;28;20750;-61
2023/05/26 02:33:21;;;;;;;2.38;2.22;;;;;;;15.68;91.26;98123.69;5049914;28;20223;-61
2023/05/26 02:35:46;;;;;;;2.17;1.98;;;;;;;15.52;91.14;98094.78;5049855;28;20194;-62
2023/05/26 02:38:12;;;;;;;3.03;2.83;;;;;;;15.60;92.64;98123.56;5049885;28;20184;-62
2023/05/26 02:40:37;;;;;;;2.63;2.42;;;;;;;15.26;93.02;98075.47;5051666;28;20239;-61
2023/05/26 02:43:02;;;;;;;3.28;2.30;;;;;;;15.76;92.27;98153.31;5052182;28;20618;-61
2023/05/26 02:45:28;;;;;;;2.55;2.35;;;;;;;15.79;91.26;98153.00;5052051;28;20761;-61
2023/05/26 02:47:53;;;;;;;3.33;2.53;;;;;;;15.70;91.10;98114.75;5052170;28;20181;-61
2023/05/26 02:50:19;;;;;;;3.50;2.15;;;;;;;15.77;91.61;98128.03;5052109;28;20200;-62
2023/05/26 02:52:45;;;;;;;2.67;2.47;;;;;;;15.52;91.03;98090.38;5052061;28;20223;-61
2023/05/26 02:55:11;;;;;;;2.55;2.35;;;;;;;15.65;91.50;98113.53;5052085;28;20183;-61
2023/05/26 02:57:37;;;;;;;2.78;2.58;;;;;;;15.74;92.94;98160.44;5051955;28;20677;-61
2023/05/26 03:00:07;;;;;;;3.63;3.10;;;;;;;15.44;91.62;98111.13;5051666;28;20193;-61
2023/05/26 03:02:33;;;;;;;3.10;2.33;;;;;;;15.65;92.18;98140.44;5051975;28;20194;-61
2023/05/26 03:04:58;;;;;;;3.28;2.25;;;;;;;15.42;92.01;98102.63;5051604;28;20236;-61
2023/05/26 03:07:24;;;;;;;2.70;2.50;;;;;;;15.64;92.63;98156.22;5051948;28;20201;-61
2023/05/26 03:09:49;;;;;;;2.80;2.42;;;;;;;15.30;92.12;98098.53;5051926;28;20251;-61
2023/05/26 03:12:15;;;;;;;4.55;2.78;;;;;;;15.24;92.63;98119.94;5051615;28;20633;-61
2023/05/26 03:14:42;;;;;;;3.90;2.78;;;;;;;15.27;92.78;98113.63;5051848;28;20180;-61
2023/05/26 03:17:07;;;;;;;4.65;2.30;;;;;;;15.35;93.63;98145.06;5051835;28;20203;-61
2023/05/26 03:19:32;;;;;;;3.10;2.90;;;;;;;15.65;94.32;98194.38;5051835;28;20212;-61
2023/05/26 03:21:58;;;;;;;2.80;2.60;;;;;;;15.45;94.41;98164.91;5051756;28;20170;-61
2023/05/26 03:24:23;;;;;;;2.97;2.65;;;;;;;15.15;94.77;98105.13;5051413;28;20301;-61
2023/05/26 03:26:50;;;;;;;3.58;2.88;;;;;;;15.35;96.16;98148.50;5055482;28;20177;-61
2023/05/26 03:29:15;;;;;;;2.42;2.25;;;;;;;15.57;95.12;98173.41;5055615;28;20189;-62
2023/05/26 03:31:40;;;;;;;2.95;2.53;;;;;;;15.61;95.08;98180.81;5052972;28;20571;-61
2023/05/26 03:34:06;;;;;;;2.60;2.40;;;;;;;15.25;95.41;98111.16;5053005;28;20233;-61
2023/05/26 03:36:31;;;;;;;3.38;2.72;;;;;;;15.56;95.72;98175.19;5053039;28;20212;-61
2023/05/26 03:38:57;;;;;;;3.65;2.80;;;;;;;15.56;95.63;98188.22;5053180;28;20196;-61
2023/05/26 03:41:22;;;;;;;3.22;2.92;;;;;;;15.19;95.87;98124.75;5053024;28;20188;-61
2023/05/26 03:43:50;;;;;;;3.20;2.50;;;;;;;15.28;95.13;98121.28;5052887;28;20265;-61
2023/05/26 03:46:15;;;;;;;4.78;2.35;;;;;;;15.35;95.72;98147.66;5052920;28;20212;-61
2023/05/26 03:48:41;;;;;;;4.32;2.40;;;;;;;15.56;95.44;98184.81;5052914;28;20221;-61
2023/05/26 03:51:06;;;;;;;3.90;2.30;;;;;;;15.59;94.77;98168.88;5053059;28;20672;-61
2023/05/26 03:53:31;;;;;;;2.38;2.17;;;;;;;15.57;94.56;98168.19;5052817;28;20261;-61
2023/05/26 03:55:57;;;;;;;2.95;2.58;;;;;;;15.45;94.45;98143.25;5052713;28;20586;-61
2023/05/26 03:58:22;;;;;;;2.95;2.75;;;;;;;15.39;94.76;98134.19;5052723;28;20200;-61
2023/05/26 04:00:47;;;;;;;2.75;2.10;;;;;;;15.48;95.77;98180.28;5052430;28;20719;-61
2023/05/26 04:03:13;;;;;;;2.60;2.38;;;;;;;15.20;96.07;98129.00;5054099;28;20568;-61
2023/05/26 04:05:39;;;;;;;2.45;2.25;;;;;;;15.39;96.87;98172.50;5054924;28;20651;-62
2023/05/26 04:08:04;;;;;;;2.88;2.35;;;;;;;15.41;95.20;98178.38;5054908;28;20176;-61
2023/05/26 04:10:29;;;;;;;2.70;2.50;;;;;;;15.49;96.23;98186.31;5054556;28;20571;-61
2023/05/26 04:12:55;;;;;;;4.28;2.67;;;;;;;15.48;96.49;98184.66;5054549;28;20204;-61
2023/05/26 04:15:20;;;;;;;2.90;2.70;;;;;;;15.27;96.07;98150.13;5054753;28;20260;-61
2023/05/26 04:17:46;;;;;;;2.80;2.60;;;;;;;15.50;95.71;98173.13;5054755;28;20198;-62
2023/05/26 04:20:11;;;;;;;2.78;2.38;;;;;;;15.38;95.50;98168.22;5054688;28;20216;-61
2023/05/26 04:22:40;;;;;;;4.22;2.63;;;;;;;15.38;95.73;98176.03;5054633;28;20256;-61
2023/05/26 04:25:07;;;;;;;3.10;2.80;;;;;;;15.58;95.51;98212.38;5054258;28;20604;-61
2023/05/26 04:27:35;;;;;;;3.78;2.35;;;;;;;15.08;94.87;98117.09;5054260;28;20663;-61
2023/05/26 04:30:02;;;;;;;4.90;2.35;;;;;;;15.56;95.26;98197.84;5054402;28;20182;-62
2023/05/26 04:32:28;;;;;;;3.20;2.30;;;;;;;15.52;94.90;98186.03;5052023;28;20269;-62
2023/05/26 04:34:53;;;;;;;3.97;2.58;;;;;;;15.73;94.87;98194.47;5052097;28;20196;-62
2023/05/26 04:37:19;;;;;;;4.78;2.63;;;;;;;15.39;93.82;98128.97;5051872;28;20257;-62
2023/05/26 04:39:44;;;;;;;2.22;2.10;;;;;;;15.81;93.43;98186.78;5052005;28;20264;-62
2023/05/26 04:42:10;;;;;;;3.47;2.58;;;;;;;15.67;93.80;98166.34;5012087;28;20179;-61
2023/05/26 04:44:37;;;;;;;4.15;2.42;;;;;;;15.91;94.08;98198.81;5012007;28;20298;-61
2023/05/26 04:47:03;;;;;;;2.90;2.47;;;;;;;16.04;92.96;98195.91;5012013;28;20194;-61
2023/05/26 04:49:29;;;;;;;3.03;2.83;;;;;;;15.71;92.53;98126.81;5012063;28;20187;-61
2023/05/26 04:51:57;;;;;;;3.10;2.30;;;;;;;16.38;92.18;98203.03;5011968;28;20183;-61
2023/05/26 04:54:23;;;;;;;4.78;2.55;;;;;;;16.48;91.24;98213.41;5011953;28;20645;-62
2023/05/26 04:56:48;;;;;;;4.18;2.45;;;;;;;16.54;90.44;98210.22;5011923;28;20179;-62
2023/05/26 04:59:17;;;;;;;2.60;2.40;;;;;;;16.14;89.96;98141.84;5011702;28;20292;-62
2023/05/26 05:01:44;;;;;;;2.92;2.22;;;;;;;16.53;90.62;98198.13;5011777;28;20186;-62
2023/05/26 05:04:09;;;;;;;3.25;2.95;;;;;;;16.74;95.10;98240.50;5027755;28;20736;-62
2023/05/26 05:06:35;;;;;;;4.20;3.28;;;;;;;16.87;96.73;98243.56;5031472;28;20220;-62
2023/05/26 05:09:01;;;;;;;3.00;2.67;;;;;;;17.11;94.21;98233.34;5031505;28;20182;-62
2023/05/26 05:11:26;;;;;;;2.63;2.42;;;;;;;17.06;90.05;98197.19;5031482;28;20190;-62
2023/05/26 05:13:52;;;;;;;2.60;2.40;;;;;;;17.41;87.09;98235.59;5048980;28;20579;-62
2023/05/26 05:16:17;;;;;;;2.65;2.42;;;;;;;17.45;85.47;98231.69;5053646;28;20204;-62
2023/05/26 05:18:44;;;;;;;2.10;2.00;;;;;;;17.44;85.19;98225.63;5053549;28;20178;-62
2023/05/26 05:21:09;;;;;;;3.95;2.72;;;;;;;17.42;85.68;98213.69;5053504;28;20181;-62
2023/05/26 05:23:35;;;;;;;4.13;2.58;;;;;;;17.40;85.00;98210.41;5053470;28;20177;-62
2023/05/26 05:26:01;;;;;;;3.95;2.30;;;;;;;17.12;84.56;98144.31;5053394;28;20278;-62
2023/05/26 05:28:27;;;;;;;3.17;2.40;;;;;;;17.44;84.13;98177.75;5053376;28;20177;-62
2023/05/26 05:30:52;;;;;;;2.67;2.33;;;;;;;17.57;84.41;98206.94;5053040;28;20551;-62
2023/05/26 05:33:20;;;;;;;2.30;2.20;;;;;;;17.29;84.08;98158.31;5053301;28;20187;-62
2023/05/26 05:35:46;;;;;;;3.20;2.40;;;;;;;17.81;84.08;98220.16;5053001;28;20203;-62
2023/05/26 05:38:12;;;;;;;2.97;2.65;;;;;;;17.58;84.14;98203.34;5053176;28;20632;-62
2023/05/26 05:40:37;;;;;;;4.57;2.65;;;;;;;17.32;84.90;98155.41;5053222;28;20169;-62
2023/05/26 05:43:03;;;;;;;3.20;2.42;;;;;;;17.56;85.17;98181.75;5053061;28;20181;-62
2023/05/26 05:45:28;;;;;;;2.25;1.95;;;;;;;17.82;84.70;98222.63;5053059;28;20284;-62
2023/05/26 05:47:54;;;;;;;2.65;2.45;;;;;;;17.79;83.89;98204.63;5052420;28;20212;-62
2023/05/26 05:50:19;;;;;;;3.45;2.45;;;;;;;17.77;83.08;98187.44;5050558;28;20277;-62
2023/05/26 05:52:45;;;;;;;2.55;2.20;;;;;;;18.04;83.63;98223.91;5050550;28;20193;-62
2023/05/26 05:55:10;;;;;;;3.40;2.30;;;;;;;17.98;83.62;98214.06;5030421;28;20256;-62
2023/05/26 05:57:36;;;;;;;2.33;2.10;;;;;;;17.69;83.53;98169.06;5030432;28;20190;-62
2023/05/26 06:00:03;;;;;;;2.55;2.35;;;;;;;17.93;83.80;98211.06;5030360;28;20598;-63
2023/05/26 06:02:29;;;;;;;2.88;2.20;;;;;;;17.72;83.67;98168.78;5030509;28;20178;-63
2023/05/26 06:04:54;;;;;;;2.72;2.50;;;;;;;17.89;83.77;98184.41;5030366;28;20216;-62
2023/05/26 06:07:20;;;;;;;2.72;2.53;;;;;;;17.93;84.35;98193.59;5030398;28;20730;-62
2023/05/26 06:09:45;;;;;;;3.08;2.30;;;;;;;17.90;84.10;98177.38;5030627;28;20197;-62
2023/05/26 06:12:10;;;;;;;4.32;2.50;;;;;;;17.75;84.34;98139.66;5030299;28;20696;-62
2023/05/26 06:14:38;;;;;;;2.72;2.53;;;;;;;17.63;84.56;98151.38;5030349;28;20190;-63
2023/05/26 06:17:03;;;;;;;4.82;2.40;;;;;;;17.86;84.78;98173.41;5030200;28;20189;-63
2023/05/26 06:19:29;;;;;;;2.40;2.30;;;;;;;18.07;84.14;98210.50;5030270;28;20196;-63
2023/05/26 06:21:54;;;;;;;5.70;2.40;;;;;;;18.12;84.13;98210.88;5044999;28;20579;-63
2023/05/26 06:24:20;;;;;;;2.53;2.13;;;;;;;18.06;83.77;98195.75;5029973;28;20308;-63
2023/05/26 06:26:45;;;;;;;2.58;2.38;;;;;;;17.70;84.28;98150.59;5045080;28;20246;-63
2023/05/26 06:29:11;;;;;;;3.95;2.42;;;;;;;18.05;84.22;98199.34;5049949;28;20729;-63
2023/05/26 06:31:36;;;;;;;2.72;2.53;;;;;;;18.34;84.18;98228.66;5049959;28;20188;-62
2023/05/26 06:34:02;;;;;;;2.65;2.33;;;;;;;18.32;83.92;98207.88;5049914;28;20231;-62
2023/05/26 06:36:27;;;;;;;3.22;2.53;;;;;;;18.42;82.93;98220.84;5049890;28;20185;-62
2023/05/26 06:38:52;;;;;;;4.40;2.58;;;;;;;18.32;82.88;98193.94;5049855;28;20214;-62
2023/05/26 06:41:18;;;;;;;6.10;2.67;;;;;;;18.49;82.84;98230.50;5029792;28;20194;-62
2023/05/26 06:43:43;;;;;;;4.95;3.30;;;;;;;18.50;83.00;98236.59;5029736;28;20205;-62
2023/05/26 06:46:09;;;;;;;3.08;2.78;;;;;;;18.23;82.74;98197.47;5029930;28;20190;-62
2023/05/26 06:48:34;;;;;;;3.42;2.72;;;;;;;18.41;83.34;98224.44;5029801;28;20184;-62
2023/05/26 06:51:00;;;;;;;2.80;2.60;;;;;;;18.41;83.77;98232.31;5029794;28;20197;-62
2023/05/26 06:53:25;;;;;;;6.32;2.60;;;;;;;18.12;84.01;98192.53;5029817;28;20189;-62
2023/05/26 06:55:51;;;;;;;4.55;2.60;;;;;;;17.95;84.19;98177.72;5029718;28;20217;-62
2023/05/26 06:58:16;;;;;;;4.32;2.58;;;;;;;18.36;85.60;98239.81;5030010;28;20177;-62
2023/05/26 07:00:58;;;;;;;4.63;2.88;;;;;;;18.31;86.94;98248.13;5031725;28;20221;-62
2023/05/26 07:03:23;;;;;;;3.45;2.20;;;;;;;17.92;87.03;98172.78;5033889;28;20235;-62
2023/05/26 07:05:49;;;;;;;2.55;2.40;;;;;;;18.47;86.95;98252.63;5033692;28;20733;-62
2023/05/26 07:08:15;;;;;;;2.85;2.50;;;;;;;18.14;86.58;98183.53;5033795;28;20243;-62
2023/05/26 07:10:40;;;;;;;3.10;2.80;;;;;;;18.73;86.18;98269.09;5033757;28;20217;-62
2023/05/26 07:13:06;;;;;;;2.95;2.67;;;;;;;18.42;86.56;98205.94;5052087;28;20350;-62
2023/05/26 07:15:31;;;;;;;3.35;3.05;;;;;;;18.95;86.86;98279.00;5073447;28;20287;-62
2023/05/26 07:17:57;;;;;;;2.63;2.42;;;;;;;19.05;86.46;98275.25;5073522;28;20188;-63
2023/05/26 07:20:22;;;;;;;3.40;2.40;;;;;;;19.06;83.30;98260.34;5073741;28;20271;-62
2023/05/26 07:22:47;;;;;;;2.28;2.08;;;;;;;19.22;81.80;98263.00;5073428;28;20548;-62
2023/05/26 07:25:13;;;;;;;2.55;2.45;;;;;;;19.47;81.50;98298.78;5073311;28;20216;-62
2023/05/26 07:27:38;;;;;;;9.80;3.40;;;;;;;19.43;86.14;98258.09;5073356;28;20175;-62
2023/05/26 07:30:04;;;;;;;11.18;3.78;;;;;;;19.68;90.47;98264.97;5073282;28;20193;-62
2023/05/26 07:32:30;;;;;;;13.45;4.72;;;;;;;20.05;92.15;98302.84;5073224;28;20179;-62
2023/05/26 07:34:55;;;;;;;14.18;4.57;;;;;;;20.09;91.95;98285.81;5073236;28;20184;-62
2023/05/26 07:37:20;;;;;;;11.77;4.25;;;;;;;20.11;91.05;98267.28;5073174;28;20176;-62
2023/05/26 07:39:46;;;;;;;8.10;3.88;;;;;;;20.41;90.10;98288.34;5073063;28;20188;-63
2023/05/26 07:42:11;;;;;;;11.43;4.65;;;;;;;20.27;88.10;98243.56;5073018;28;20180;-62
2023/05/26 07:44:36;;;;;;;14.07;6.00;;;;;;;20.39;86.64;98247.47;5072922;28;20203;-63
2023/05/26 07:47:02;;;;;;;10.27;4.70;;;;;;;20.64;86.74;98276.09;5060167;28;20193;-62
2023/05/26 07:49:27;;;;;;;11.52;4.72;;;;;;;20.59;85.85;98228.50;5055308;28;20553;-62
2023/05/26 07:51:53;;;;;;;9.95;4.68;;;;;;;20.96;85.06;98256.75;5055281;28;20177;-62
2023/05/26 07:54:18;;;;;;;9.27;5.40;;;;;;;21.09;81.96;98251.75;5054934;28;20177;-62
2023/05/26 07:56:43;;;;;;;10.68;5.47;;;;;;;21.38;80.84;98284.25;5055132;28;20204;-62
2023/05/26 07:59:09;;;;;;;12.27;5.85;;;;;;;21.17;80.20;98249.88;5055016;28;20204;-63
2023/05/26 08:01:34;;;;;;;8.32;5.28;;;;;;;21.54;80.93;98320.19;5055097;28;20162;-63
2023/05/26 08:04:00;;;;;;;10.00;5.55;;;;;;;21.57;81.30;98312.75;5054956;28;20173;-63
2023/05/26 08:06:25;;;;;;;7.75;5.68;;;;;;;21.42;79.80;98261.88;5054730;28;20226;-63
2023/05/26 08:08:50;;;;;;;8.07;5.32;;;;;;;21.28;78.55;98253.91;5054986;28;20710;-63
2023/05/26 08:11:17;;;;;;;13.30;5.45;;;;;;;21.04;77.95;98248.81;5052144;28;20189;-63
2023/05/26 08:13:42;;;;;;;7.53;5.00;;;;;;;21.54;77.42;98317.56;5052485;28;20196;-63
2023/05/26 08:16:08;;;;;;;9.93;5.93;;;;;;;21.37;78.00;98289.69;5052451;28;20587;-63
2023/05/26 08:18:33;;;;;;;8.27;5.03;;;;;;;21.63;78.49;98324.41;5052425;28;20256;-63
2023/05/26 08:20:58;;;;;;;8.07;4.80;;;;;;;21.35;78.68;98258.31;5052368;28;20671;-63
2023/05/26 08:23:24;;;;;;;8.82;5.20;;;;;;;21.55;77.84;98290.22;5052562;28;20188;-63
2023/05/26 08:25:49;;;;;;;7.13;5.13;;;;;;;21.59;78.85;98296.78;5052200;28;20212;-63
2023/05/26 08:28:15;;;;;;;6.32;4.97;;;;;;;21.32;78.75;98253.38;5052488;28;20268;-63
2023/05/26 08:30:41;;;;;;;9.02;4.75;;;;;;;21.87;78.40;98325.06;5052161;28;20660;-63
2023/05/26 08:33:06;;;;;;;9.77;4.85;;;;;;;21.34;78.05;98247.94;5052170;28;20273;-63
2023/05/26 08:35:32;;;;;;;11.50;5.15;;;;;;;21.43;78.14;98246.88;5052117;28;20276;-63
2023/05/26 08:37:57;;;;;;;10.70;5.32;;;;;;;21.65;77.55;98301.34;5052341;28;20200;-63
2023/05/26 08:40:23;;;;;;;5.43;4.43;;;;;;;21.92;76.99;98311.38;5051926;28;20762;-62
2023/05/26 08:42:52;;;;;;;8.93;4.43;;;;;;;22.01;74.89;98312.91;5053448;28;20668;-63
2023/05/26 08:45:19;;;;;;;10.75;4.93;;;;;;;21.97;76.37;98319.56;5054194;28;20189;-63
2023/05/26 08:47:44;;;;;;;9.48;5.28;;;;;;;22.06;74.68;98321.09;5054220;28;20201;-63
2023/05/26 08:50:11;;;;;;;10.48;4.80;;;;;;;21.89;73.95;98280.09;5053923;28;20197;-63
2023/05/26 08:52:38;;;;;;;7.05;4.93;;;;;;;22.31;71.64;98325.16;5054478;28;20235;-63
2023/05/26 08:55:05;;;;;;;8.25;3.92;;;;;;;22.22;70.91;98294.59;5054042;28;20523;-63
2023/05/26 08:57:30;;;;;;;17.92;5.05;;;;;;;22.03;71.40;98261.66;5054039;28;20173;-63
2023/05/26 08:59:56;;;;;;;6.00;4.20;;;;;;;22.18;71.04;98288.03;5053741;28;20199;-63
2023/05/26 09:02:22;;;;;;;10.30;4.88;;;;;;;21.80;70.80;98244.28;5054168;28;20212;-63
2023/05/26 09:04:47;;;;;;;9.63;4.65;;;;;;;22.08;71.29;98276.97;5051313;28;20220;-63
2023/05/26 09:07:12;;;;;;;5.60;3.90;;;;;;;22.09;71.19;98274.13;5051448;28;20197;-63
2023/05/26 09:09:38;;;;;;;11.75;4.15;;;;;;;22.15;71.15;98276.03;5051440;28;20217;-63
2023/05/26 09:12:10;;;;;;;4.95;2.95;;;;;;;22.61;66.11;98308.38;5051650;28;20173;-63
2023/05/26 09:14:36;;;;;;;4.93;3.50;;;;;;;22.68;65.00;98315.34;5051337;28;20177;-63
2023/05/26 09:17:02;;;;;;;12.25;4.07;;;;;;;22.63;65.26;98282.63;5051334;28;20645;-63
2023/05/26 09:19:28;;;;;;;7.75;4.03;;;;;;;22.88;65.43;98291.84;5051208;28;20707;-63
2023/05/26 09:21:54;;;;;;;5.15;2.80;;;;;;;23.20;61.39;98317.84;5051012;28;20181;-63
2023/05/26 09:24:23;;;;;;;4.32;2.72;;;;;;;23.09;61.68;98278.72;5050406;28;20776;-63
2023/05/26 09:26:49;;;;;;;3.90;2.33;;;;;;;22.91;58.34;98236.09;5051044;28;20196;-63
2023/05/26 09:29:16;;;;;;;4.25;2.90;;;;;;;23.22;58.42;98294.72;5051052;28;20185;-63
2023/05/26 09:31:45;;;;;;;3.10;2.80;;;;;;;23.42;58.70;98306.31;5051050;28;20188;-63
2023/05/26 09:34:13;;;;;;;4.60;2.45;;;;;;;23.26;59.30;98254.53;5050938;28;20181;-63
2023/05/26 09:36:40;;;;;;;4.80;2.92;;;;;;;23.46;58.81;98258.22;5050880;28;20568;-63
2023/05/26 09:39:09;;;;;;;3.60;2.90;;;;;;;23.77;57.61;98280.63;5050865;28;20180;-63
2023/05/26 09:41:39;;;;;;;5.13;2.92;;;;;;;23.59;55.52;98208.13;5051240;28;20196;-63
2023/05/26 09:44:12;;;;;;;4.78;2.85;;;;;;;23.71;55.71;98205.78;5052753;28;20600;-63
2023/05/26 09:46:39;;;;;;;6.15;2.70;;;;;;;24.04;56.91;98242.03;5053205;28;20174;-63
2023/05/26 09:49:14;;;;;;;5.65;2.97;;;;;;;23.91;56.74;98193.56;5053067;28;20259;-63
2023/05/26 09:51:41;;;;;;;6.82;2.80;;;;;;;24.13;56.72;98217.06;5053101;28;20153;-63
2023/05/26 09:54:09;;;;;;;5.13;2.90;;;;;;;24.60;56.10;98270.88;5053025;28;20177;-63
2023/05/26 09:56:36;;;;;;;5.78;2.80;;;;;;;24.41;55.21;98213.38;5052825;28;20319;-63
2023/05/26 09:59:05;;;;;;;6.82;2.70;;;;;;;24.72;54.81;98255.25;5052666;28;20184;-63
2023/05/26 10:01:33;;;;;;;5.60;3.30;;;;;;;24.78;54.14;98255.28;5052909;28;20166;-63
2023/05/26 10:03:59;;;;;;;4.57;2.92;;;;;;;24.55;52.81;98244.16;5052767;28;20250;-63
2023/05/26 10:06:25;;;;;;;3.40;3.10;;;;;;;24.04;54.34;98205.81;5052775;28;20718;-63
2023/05/26 10:08:56;;;;;;;5.90;2.72;;;;;;;23.92;54.93;98173.00;5052668;28;20193;-63
2023/05/26 10:11:23;;;;;;;5.95;3.10;;;;;;;23.73;55.24;98159.66;5052745;28;20216;-63
2023/05/26 10:13:49;;;;;;;6.68;3.20;;;;;;;23.97;56.84;98190.13;5052657;28;20264;-63
2023/05/26 10:16:15;;;;;;;6.20;2.83;;;;;;;24.36;55.85;98228.19;5052610;28;20252;-63
2023/05/26 10:18:40;;;;;;;4.93;3.33;;;;;;;24.25;56.75;98179.31;5052549;28;20210;-63
2023/05/26 10:21:10;;;;;;;5.22;2.80;;;;;;;24.74;56.43;98227.56;5052597;28;20169;-63
2023/05/26 10:23:50;;;;;;;4.80;2.90;;;;;;;24.85;54.22;98220.91;5052477;28;20649;-63
2023/05/26 10:26:40;;;;;;;6.32;3.03;;;;;;;24.80;54.04;98205.63;5052142;28;20540;-63
2023/05/26 10:29:10;;;;;;;6.25;2.80;;;;;;;24.54;54.61;98149.09;5052195;28;20631;-63
2023/05/26 10:31:38;;;;;;;6.43;3.05;;;;;;;24.99;52.57;98188.97;5052634;28;20196;-63
2023/05/26 10:34:14;;;;;;;6.70;2.75;;;;;;;25.26;52.13;98201.22;5052106;28;20173;-63
2023/05/26 10:36:41;;;;;;;4.15;2.63;;;;;;;25.41;50.21;98188.63;5052293;28;20269;-63
2023/05/26 10:39:11;;;;;;;3.85;2.60;;;;;;;25.61;47.78;98194.72;5052238;28;20173;-63
2023/05/26 10:41:52;;;;;;;8.25;3.72;;;;;;;25.70;48.17;98193.50;5052538;28;20183;-63
2023/05/26 10:44:41;;;;;;;3.92;2.40;;;;;;;26.01;47.04;98206.94;5052104;28;20200;-63
2023/05/26 10:47:06;;;;;;;3.65;2.22;;;;;;;26.17;45.44;98201.22;5052154;28;20173;-63
2023/05/26 10:49:35;;;;;;;4.00;2.10;;;;;;;25.96;43.65;98169.63;5052129;28;20184;-63
2023/05/26 10:52:13;;;;;;;2.13;1.92;;;;;;;26.28;44.60;98186.47;5052136;28;20252;-63
2023/05/26 10:54:40;;;;;;;2.35;2.15;;;;;;;25.98;44.33;98127.81;5052162;28;20169;-64
2023/05/26 10:57:25;;;;;;;4.10;2.30;;;;;;;26.28;45.01;98128.94;5052135;28;20207;-63
2023/05/26 10:59:53;;;;;;;2.40;2.20;;;;;;;26.75;42.84;98178.13;5051638;28;20203;-64
2023/05/26 11:02:21;;;;;;;3.47;1.92;;;;;;;26.75;41.11;98155.06;5052048;28;20242;-63
2023/05/26 11:04:48;;;;;;;1.70;1.60;;;;;;;26.96;40.36;98167.19;5051615;28;20585;-63
2023/05/26 11:07:27;;;;;;;2.50;2.30;;;;;;;27.22;40.96;98175.03;5051996;28;20177;-63
2023/05/26 11:10:06;;;;;;;4.10;1.70;;;;;;;27.39;39.75;98166.28;5052022;28;20169;-63
2023/05/26 11:12:36;;;;;;;4.90;1.80;;;;;;;27.64;40.70;98180.38;5051926;28;20172;-63
2023/05/26 11:15:32;;;;;;;2.15;2.05;;;;;;;27.87;39.67;98175.28;5051916;28;20181;-63
2023/05/26 11:18:06;;;;;;;2.20;2.03;;;;;;;27.61;39.92;98110.88;5051800;28;20177;-63
2023/05/26 11:20:33;;;;;;;2.38;2.17;;;;;;;27.81;39.47;98106.22;5051602;28;20182;-64
2023/05/26 11:22:58;;;;;;;2.70;2.33;;;;;;;27.89;39.11;98109.41;5051848;28;20165;-64
2023/05/26 11:25:27;;;;;;;7.38;1.80;;;;;;;28.03;39.40;98164.09;5049249;28;20215;-64
2023/05/26 11:27:52;;;;;;;2.35;2.22;;;;;;;27.11;40.26;98096.78;5049633;28;20268;-64
2023/05/26 11:30:19;;;;;;;5.75;2.58;;;;;;;27.07;41.56;98153.22;5049375;28;20280;-63